createdAt,value
2023-06-12T00:01:31.114Z,13.62
2023-06-12T00:05:34.002Z,13.50
2023-06-12T00:09:37.146Z,13.28
2023-06-12T00:13:40.625Z,12.94
2023-06-12T00:17:45.068Z,12.29
2023-06-12T00:21:47.830Z,12.53
2023-06-12T00:25:50.934Z,12.75
2023-06-12T00:29:54.006Z,13.21
2023-06-12T00:33:58.507Z,13.20
2023-06-12T00:38:02.059Z,13.09
2023-06-12T00:42:06.019Z,12.50
2023-06-12T00:46:09.053Z,12.60
2023-06-12T00:50:14.421Z,13.02
2023-06-12T00:54:17.652Z,12.48
2023-06-12T00:58:20.576Z,12.20
2023-06-12T01:02:23.863Z,13.08
2023-06-12T01:06:36.086Z,12.85
2023-06-12T01:10:42.903Z,11.91
2023-06-12T01:14:47.540Z,12.53
2023-06-12T01:18:51.225Z,12.34
2023-06-12T01:22:58.041Z,11.83
2023-06-12T01:27:22.343Z,12.12
2023-06-12T01:31:28.890Z,12.16
2023-06-12T01:35:38.280Z,11.96
2023-06-12T01:39:43.647Z,11.66
2023-06-12T01:43:46.646Z,11.72
2023-06-12T01:47:49.496Z,12.24
2023-06-12T01:51:53.676Z,11.50
2023-06-12T01:55:58.098Z,11.80
2023-06-12T02:00:01.602Z,12.12
2023-06-12T02:04:04.643Z,11.94
2023-06-12T02:08:09.026Z,11.98
2023-06-12T02:12:12.483Z,11.79
2023-06-12T02:16:17.551Z,11.29
2023-06-12T02:20:20.365Z,11.43
2023-06-12T02:24:27.339Z,11.47
2023-06-12T02:28:30.260Z,11.71
2023-06-12T02:32:34.736Z,11.20
2023-06-12T02:36:41.083Z,11.26
2023-06-12T02:40:45.412Z,11.37
2023-06-12T02:44:48.469Z,11.24
2023-06-12T02:48:51.338Z,10.99
2023-06-12T02:52:54.741Z,11.13
2023-06-12T02:56:59.122Z,10.78
2023-06-12T03:01:03.980Z,10.37
2023-06-12T03:05:07.704Z,10.87
2023-06-12T03:09:10.792Z,11.12
2023-06-12T03:13:15.600Z,11.17
2023-06-12T03:17:19.187Z,11.21
2023-06-12T03:21:22.988Z,10.82
2023-06-12T03:25:26.211Z,11.07
2023-06-12T03:29:30.500Z,10.90
2023-06-12T03:33:33.654Z,10.91
2023-06-12T03:37:36.537Z,10.79
2023-06-12T03:41:53.273Z,10.68
2023-06-12T03:45:57.943Z,10.66
2023-06-12T03:50:01.299Z,11.06
2023-06-12T03:54:04.297Z,10.99
2023-06-12T03:58:07.162Z,11.16
2023-06-12T04:02:11.363Z,10.53
2023-06-12T04:06:14.426Z,10.73
2023-06-12T04:10:17.419Z,10.79
2023-06-12T04:14:21.672Z,10.87
2023-06-12T04:18:26.252Z,10.97
2023-06-12T04:22:29.271Z,11.02
2023-06-12T04:26:32.942Z,11.08
2023-06-12T04:30:36.860Z,11.37
2023-06-12T04:34:42.400Z,11.45
2023-06-12T04:38:45.280Z,11.27
2023-06-12T04:42:48.313Z,11.39
2023-06-12T04:46:53.886Z,11.52
2023-06-12T04:50:59.350Z,11.80
2023-06-12T04:55:02.967Z,12.24
2023-06-12T04:59:05.837Z,12.22
2023-06-12T05:03:09.393Z,12.48
2023-06-12T05:07:18.006Z,12.58
2023-06-12T05:11:21.039Z,12.60
2023-06-12T05:15:24.067Z,12.93
2023-06-12T05:19:27.028Z,13.34
2023-06-12T05:23:31.336Z,14.63
2023-06-12T05:27:34.506Z,16.68
2023-06-12T05:31:37.696Z,21.84
2023-06-12T05:35:40.459Z,20.74
2023-06-12T05:39:44.727Z,22.77
2023-06-12T05:43:48.057Z,24.69
2023-06-12T05:47:52.107Z,24.99
2023-06-12T05:51:55.917Z,22.22
2023-06-12T05:56:04.002Z,19.60
2023-06-12T06:00:12.538Z,21.26
2023-06-12T06:04:16.027Z,22.14
2023-06-12T06:08:19.062Z,22.40
2023-06-12T06:12:23.200Z,23.11
2023-06-12T06:16:29.313Z,24.13
2023-06-12T06:20:39.689Z,25.05
2023-06-12T06:24:42.539Z,25.43
2023-06-12T06:28:53.263Z,25.45
2023-06-12T06:33:06.515Z,26.05
2023-06-12T06:37:09.333Z,23.62
2023-06-12T06:41:12.203Z,24.63
2023-06-12T06:45:17.110Z,25.69
2023-06-12T06:49:20.033Z,24.43
2023-06-12T06:53:23.310Z,24.53
2023-06-12T06:57:27.184Z,25.17
2023-06-12T07:01:34.897Z,24.35
2023-06-12T07:05:38.093Z,26.62
2023-06-12T07:09:41.159Z,25.13
2023-06-12T07:13:44.618Z,27.05
2023-06-12T07:17:48.867Z,25.83
2023-06-12T07:21:52.006Z,26.07
2023-06-12T07:25:55.025Z,26.93
2023-06-12T07:29:57.741Z,25.93
2023-06-12T07:34:01.753Z,25.19
2023-06-12T07:38:05.153Z,25.52
2023-06-12T07:42:08.410Z,25.20
2023-06-12T07:46:11.929Z,25.82
2023-06-12T07:50:16.834Z,25.19
2023-06-12T07:54:19.693Z,24.62
2023-06-12T07:58:22.476Z,24.81
2023-06-12T08:02:30.030Z,25.07
2023-06-12T08:06:36.954Z,24.93
2023-06-12T08:10:40.027Z,25.11
2023-06-12T08:14:43.004Z,24.81
2023-06-12T08:18:46.011Z,25.43
2023-06-12T08:22:50.903Z,24.43
2023-06-12T08:26:54.091Z,24.60
2023-06-12T08:30:59.336Z,24.91
2023-06-12T08:35:02.609Z,25.38
2023-06-12T08:39:11.699Z,25.60
2023-06-12T08:43:15.313Z,24.97
2023-06-12T08:47:18.796Z,24.76
2023-06-12T08:51:22.944Z,25.55
2023-06-12T08:55:27.940Z,25.52
2023-06-12T08:59:31.178Z,25.31
2023-06-12T09:03:34.633Z,24.93
2023-06-12T09:07:39.917Z,25.26
2023-06-12T09:11:44.639Z,26.38
2023-06-12T09:15:52.631Z,25.70
2023-06-12T09:19:55.634Z,26.36
2023-06-12T09:23:58.408Z,26.48
2023-06-12T09:28:04.912Z,26.45
2023-06-12T09:32:10.136Z,26.86
2023-06-12T09:36:14.698Z,26.51
2023-06-12T09:40:17.685Z,26.43
2023-06-12T09:44:23.653Z,26.79
2023-06-12T09:48:27.803Z,27.45
2023-06-12T09:52:31.438Z,26.64
2023-06-12T09:56:35.037Z,26.92
2023-06-12T10:00:39.789Z,26.90
2023-06-12T10:04:50.568Z,27.78
2023-06-12T10:08:55.945Z,26.95
2023-06-12T10:13:01.000Z,27.77
2023-06-12T10:17:06.740Z,27.88
2023-06-12T10:21:10.119Z,26.93
2023-06-12T10:25:13.851Z,27.28
2023-06-12T10:29:32.749Z,27.87
2023-06-12T10:33:38.841Z,27.86
2023-06-12T10:37:44.975Z,27.42
2023-06-12T10:41:57.527Z,26.82
2023-06-12T10:46:00.818Z,26.77
2023-06-12T10:50:10.707Z,26.69
2023-06-12T10:54:16.704Z,27.20
2023-06-12T10:58:22.091Z,27.03
2023-06-12T11:02:25.371Z,26.67
2023-06-12T11:06:30.578Z,26.19
2023-06-12T11:10:35.214Z,27.70
2023-06-12T11:14:38.215Z,27.55
2023-06-12T11:18:41.225Z,27.82
2023-06-12T11:22:45.849Z,27.26
2023-06-12T11:26:51.012Z,26.97
2023-06-12T11:35:02.849Z,27.83
2023-06-12T11:43:27.715Z,27.83
2023-06-12T11:51:38.587Z,27.83
2023-06-12T11:59:50.039Z,26.53
2023-06-12T12:03:57.183Z,25.63
2023-06-12T12:08:01.283Z,26.18
2023-06-12T12:12:11.036Z,26.53
2023-06-12T12:16:14.551Z,26.17
2023-06-12T12:20:19.928Z,26.29
2023-06-12T12:24:23.169Z,27.11
2023-06-12T12:28:27.693Z,26.77
2023-06-12T12:32:30.996Z,26.77
2023-06-12T12:36:33.909Z,27.47
2023-06-12T12:40:37.093Z,27.00
2023-06-12T12:44:41.380Z,27.14
2023-06-12T12:48:44.614Z,26.40
2023-06-12T12:52:50.214Z,26.23
2023-06-12T12:56:53.453Z,26.15
2023-06-12T13:00:58.118Z,26.76
2023-06-12T13:05:01.121Z,27.11
2023-06-12T13:09:05.172Z,26.62
2023-06-12T13:13:08.090Z,27.11
2023-06-12T13:17:12.737Z,26.61
2023-06-12T13:21:15.669Z,25.73
2023-06-12T13:25:18.785Z,25.99
2023-06-12T13:29:21.723Z,26.99
2023-06-12T13:33:26.256Z,26.90
2023-06-12T13:37:28.950Z,27.39
2023-06-12T13:41:32.043Z,27.29
2023-06-12T13:45:35.950Z,26.63
2023-06-12T13:49:40.137Z,27.23
2023-06-12T13:53:42.931Z,27.23
2023-06-12T13:57:46.144Z,27.55
2023-06-12T14:01:49.780Z,27.19
2023-06-12T14:05:54.055Z,27.34
2023-06-12T14:09:57.218Z,27.87
2023-06-12T14:14:00.047Z,26.92
2023-06-12T14:18:04.491Z,27.55
2023-06-12T14:22:09.805Z,27.03
2023-06-12T14:26:12.982Z,26.15
2023-06-12T14:30:16.149Z,26.02
2023-06-12T14:34:19.634Z,26.65
2023-06-12T14:38:24.553Z,26.68
2023-06-12T14:42:27.574Z,26.72
2023-06-12T14:46:30.679Z,25.74
2023-06-12T14:50:33.682Z,25.73
2023-06-12T14:54:38.054Z,26.40
2023-06-12T14:58:42.932Z,26.87
2023-06-12T15:02:47.102Z,27.10
2023-06-12T15:06:49.895Z,26.53
2023-06-12T15:10:54.159Z,26.58
2023-06-12T15:14:56.969Z,26.90
2023-06-12T15:19:00.039Z,27.08
2023-06-12T15:23:02.846Z,27.09
2023-06-12T15:27:08.054Z,27.09
2023-06-12T15:31:11.536Z,26.72
2023-06-12T15:35:14.947Z,26.62
2023-06-12T15:39:18.037Z,26.17
2023-06-12T15:43:22.105Z,26.43
2023-06-12T15:47:25.546Z,26.60
2023-06-12T15:51:29.026Z,26.38
2023-06-12T15:55:31.932Z,26.31
2023-06-12T15:59:36.448Z,26.34
2023-06-12T16:03:39.271Z,26.30
2023-06-12T16:07:42.452Z,26.15
2023-06-12T16:11:45.377Z,26.16
2023-06-12T16:15:49.761Z,26.14
2023-06-12T16:19:52.713Z,25.87
2023-06-12T16:23:56.848Z,25.87
2023-06-12T16:28:04.113Z,25.73
2023-06-12T16:32:09.752Z,25.61
2023-06-12T16:36:13.177Z,25.65
2023-06-12T16:40:17.703Z,25.53
2023-06-12T16:44:20.987Z,25.38
2023-06-12T16:48:26.224Z,25.32
2023-06-12T16:52:29.164Z,25.39
2023-06-12T16:56:34.040Z,25.10
2023-06-12T17:00:37.094Z,25.33
2023-06-12T17:04:41.568Z,24.93
2023-06-12T17:08:44.431Z,25.14
2023-06-12T17:12:47.234Z,25.10
2023-06-12T17:16:50.044Z,24.67
2023-06-12T17:20:54.650Z,24.35
2023-06-12T17:24:57.700Z,24.68
2023-06-12T17:29:02.530Z,24.57
2023-06-12T17:33:05.385Z,24.47
2023-06-12T17:37:09.525Z,24.27
2023-06-12T17:41:12.287Z,24.03
2023-06-12T17:45:15.082Z,23.91
2023-06-12T17:49:18.135Z,24.16
2023-06-12T17:53:22.854Z,23.27
2023-06-12T17:57:25.904Z,23.44
2023-06-12T18:01:29.009Z,23.04
2023-06-12T18:05:31.864Z,22.85
2023-06-12T18:09:36.064Z,22.63
2023-06-12T18:13:39.369Z,22.27
2023-06-12T18:17:42.481Z,22.39
2023-06-12T18:21:45.936Z,22.15
2023-06-12T18:25:50.124Z,21.80
2023-06-12T18:29:54.913Z,21.89
2023-06-12T18:33:58.033Z,21.37
2023-06-12T18:38:01.641Z,21.39
2023-06-12T18:42:06.883Z,21.34
2023-06-12T18:46:10.075Z,21.01
2023-06-12T18:50:13.342Z,21.21
2023-06-12T18:54:16.293Z,20.83
2023-06-12T18:58:21.101Z,20.25
2023-06-12T19:02:24.612Z,20.30
2023-06-12T19:06:28.782Z,20.18
2023-06-12T19:10:31.995Z,19.75
2023-06-12T19:14:36.570Z,19.64
2023-06-12T19:18:39.714Z,19.47
2023-06-12T19:22:42.871Z,19.19
2023-06-12T19:26:46.419Z,19.34
2023-06-12T19:30:50.838Z,18.81
2023-06-12T19:34:53.576Z,18.68
2023-06-12T19:38:56.400Z,18.62
2023-06-12T19:42:59.269Z,18.03
2023-06-12T19:47:03.551Z,18.44
2023-06-12T19:51:07.321Z,17.87
2023-06-12T19:55:10.569Z,17.94
2023-06-12T19:59:13.737Z,17.95
2023-06-12T20:03:18.070Z,16.97
2023-06-12T20:07:21.067Z,17.58
2023-06-12T20:11:23.767Z,17.12
2023-06-12T20:15:26.941Z,16.90
2023-06-12T20:19:31.348Z,16.65
2023-06-12T20:23:34.564Z,17.08
2023-06-12T20:27:37.420Z,16.47
2023-06-12T20:31:40.655Z,16.48
2023-06-12T20:35:46.391Z,16.68
2023-06-12T20:39:49.158Z,15.98
2023-06-12T20:43:52.164Z,16.10
2023-06-12T20:47:55.056Z,16.45
2023-06-12T20:51:59.460Z,16.06
2023-06-12T20:56:03.047Z,16.04
2023-06-12T21:00:06.748Z,15.79
2023-06-12T21:04:13.070Z,15.64
2023-06-12T21:08:19.510Z,15.01
2023-06-12T21:12:23.915Z,15.23
2023-06-12T21:16:41.680Z,15.36
2023-06-12T21:20:45.301Z,14.74
2023-06-12T21:24:54.004Z,14.99
2023-06-12T21:28:57.054Z,14.97
2023-06-12T21:33:07.978Z,14.72
2023-06-12T21:37:21.327Z,14.89
2023-06-12T21:41:29.222Z,14.78
2023-06-12T21:45:32.761Z,14.85
2023-06-12T21:49:37.029Z,14.02
2023-06-12T21:53:44.637Z,14.31
2023-06-12T21:57:50.206Z,13.98
2023-06-12T22:01:56.477Z,14.26
2023-06-12T22:06:00.108Z,14.22
2023-06-12T22:10:03.124Z,13.73
2023-06-12T22:14:07.782Z,14.25
2023-06-12T22:18:11.700Z,13.87
2023-06-12T22:22:15.668Z,14.31
2023-06-12T22:26:18.717Z,13.42
2023-06-12T22:30:23.697Z,13.17
2023-06-12T22:34:31.396Z,13.82
2023-06-12T22:38:35.389Z,13.28
2023-06-12T22:42:39.012Z,13.23
2023-06-12T22:46:44.924Z,13.68
2023-06-12T22:50:48.709Z,13.39
2023-06-12T22:54:52.196Z,13.84
2023-06-12T22:58:56.173Z,13.34
2023-06-12T23:03:02.558Z,13.23
2023-06-12T23:07:08.824Z,12.75
2023-06-12T23:11:13.109Z,12.65
2023-06-12T23:15:16.743Z,12.55
2023-06-12T23:19:23.008Z,13.11
2023-06-12T23:23:26.879Z,12.39
2023-06-12T23:27:30.230Z,12.91
2023-06-12T23:31:34.003Z,12.38
2023-06-12T23:35:38.976Z,12.36
2023-06-12T23:39:45.362Z,12.39
2023-06-12T23:43:48.809Z,12.45
2023-06-12T23:47:52.555Z,12.66
2023-06-12T23:51:59.356Z,12.13
2023-06-12T23:56:04.033Z,11.99
